sensor_id;sensor_type;location;lat;lon;timestamp;temperature;humidity
72646;DHT22;60687;53.876;10.674;2023-11-19T00:06:54;5.30;99.90
72646;DHT22;60687;53.876;10.674;2023-11-19T00:17:00;5.40;99.90
72646;DHT22;60687;53.876;10.674;2023-11-19T00:27:03;5.40;99.90
72646;DHT22;60687;53.876;10.674;2023-11-19T00:37:07;5.40;99.90
72646;DHT22;60687;53.876;10.674;2023-11-19T00:47:09;5.40;99.90
72646;DHT22;60687;53.876;10.674;2023-11-19T00:57:14;5.40;99.90
72646;DHT22;60687;53.876;10.674;2023-11-19T01:07:16;5.50;99.90
72646;DHT22;60687;53.876;10.674;2023-11-19T01:17:20;5.50;99.90
72646;DHT22;60687;53.876;10.674;2023-11-19T01:27:23;5.50;99.90
72646;DHT22;60687;53.876;10.674;2023-11-19T01:37:27;5.50;99.90
72646;DHT22;60687;53.876;10.674;2023-11-19T01:47:31;5.50;99.90
72646;DHT22;60687;53.876;10.674;2023-11-19T01:57:36;5.50;99.90
72646;DHT22;60687;53.876;10.674;2023-11-19T02:07:42;5.60;99.90
72646;DHT22;60687;53.876;10.674;2023-11-19T02:17:46;5.60;99.90
72646;DHT22;60687;53.876;10.674;2023-11-19T02:27:58;5.60;99.90
72646;DHT22;60687;53.876;10.674;2023-11-19T02:38:01;5.60;99.90
72646;DHT22;60687;53.876;10.674;2023-11-19T02:48:06;5.60;99.90
72646;DHT22;60687;53.876;10.674;2023-11-19T02:58:09;5.70;99.90
72646;DHT22;60687;53.876;10.674;2023-11-19T03:08:22;5.70;99.90
72646;DHT22;60687;53.876;10.674;2023-11-19T03:18:24;5.70;99.90
72646;DHT22;60687;53.876;10.674;2023-11-19T03:28:29;5.70;99.90
72646;DHT22;60687;53.876;10.674;2023-11-19T03:38:32;5.70;99.90
72646;DHT22;60687;53.876;10.674;2023-11-19T03:48:36;5.80;99.90
72646;DHT22;60687;53.876;10.674;2023-11-19T03:58:40;5.80;99.90
72646;DHT22;60687;53.876;10.674;2023-11-19T04:08:45;5.80;99.90
72646;DHT22;60687;53.876;10.674;2023-11-19T04:18:48;5.80;99.90
72646;DHT22;60687;53.876;10.674;2023-11-19T04:28:53;5.90;99.90
72646;DHT22;60687;53.876;10.674;2023-11-19T04:38:57;5.90;99.90
72646;DHT22;60687;53.876;10.674;2023-11-19T04:49:01;6.00;99.90
72646;DHT22;60687;53.876;10.674;2023-11-19T04:59:06;6.00;99.90
72646;DHT22;60687;53.876;10.674;2023-11-19T05:09:11;6.00;99.90
72646;DHT22;60687;53.876;10.674;2023-11-19T05:19:15;6.10;99.90
72646;DHT22;60687;53.876;10.674;2023-11-19T05:29:21;6.20;99.90
72646;DHT22;60687;53.876;10.674;2023-11-19T05:39:24;6.20;99.90
72646;DHT22;60687;53.876;10.674;2023-11-19T05:49:28;6.30;99.90
72646;DHT22;60687;53.876;10.674;2023-11-19T05:59:31;6.30;99.90
72646;DHT22;60687;53.876;10.674;2023-11-19T06:09:35;6.40;99.90
72646;DHT22;60687;53.876;10.674;2023-11-19T06:19:38;6.40;99.90
72646;DHT22;60687;53.876;10.674;2023-11-19T06:29:42;6.50;99.90
72646;DHT22;60687;53.876;10.674;2023-11-19T06:39:44;6.60;99.90
72646;DHT22;60687;53.876;10.674;2023-11-19T06:49:48;6.60;99.90
72646;DHT22;60687;53.876;10.674;2023-11-19T06:59:51;6.70;99.90
72646;DHT22;60687;53.876;10.674;2023-11-19T07:09:54;6.80;99.90
72646;DHT22;60687;53.876;10.674;2023-11-19T07:19:57;6.90;99.90
72646;DHT22;60687;53.876;10.674;2023-11-19T07:30:02;7.10;99.90
72646;DHT22;60687;53.876;10.674;2023-11-19T07:40:06;7.20;99.90
72646;DHT22;60687;53.876;10.674;2023-11-19T07:50:11;7.40;99.90
72646;DHT22;60687;53.876;10.674;2023-11-19T08:00:15;7.70;99.90
72646;DHT22;60687;53.876;10.674;2023-11-19T08:10:20;8.00;99.90
72646;DHT22;60687;53.876;10.674;2023-11-19T08:20:22;8.20;99.90
72646;DHT22;60687;53.876;10.674;2023-11-19T08:30:27;8.30;99.90
72646;DHT22;60687;53.876;10.674;2023-11-19T08:40:29;8.60;99.90
72646;DHT22;60687;53.876;10.674;2023-11-19T08:50:33;9.00;99.90
72646;DHT22;60687;53.876;10.674;2023-11-19T09:00:36;9.30;99.90
72646;DHT22;60687;53.876;10.674;2023-11-19T09:10:40;9.50;99.90
72646;DHT22;60687;53.876;10.674;2023-11-19T09:20:45;9.80;99.90
72646;DHT22;60687;53.876;10.674;2023-11-19T09:30:49;10.10;99.90
72646;DHT22;60687;53.876;10.674;2023-11-19T09:40:51;10.30;99.90
72646;DHT22;60687;53.876;10.674;2023-11-19T09:50:55;10.40;99.90
72646;DHT22;60687;53.876;10.674;2023-11-19T10:00:59;10.50;99.90
72646;DHT22;60687;53.876;10.674;2023-11-19T10:11:05;10.60;99.90
72646;DHT22;60687;53.876;10.674;2023-11-19T10:21:08;10.70;99.90
72646;DHT22;60687;53.876;10.674;2023-11-19T10:31:19;10.70;99.90
72646;DHT22;60687;53.876;10.674;2023-11-19T10:41:28;10.80;99.90
72646;DHT22;60687;53.876;10.674;2023-11-19T10:51:35;10.80;99.90
72646;DHT22;60687;53.876;10.674;2023-11-19T11:01:43;10.90;99.90
72646;DHT22;60687;53.876;10.674;2023-11-19T11:11:48;11.00;99.90
72646;DHT22;60687;53.876;10.674;2023-11-19T11:21:53;11.00;99.90
72646;DHT22;60687;53.876;10.674;2023-11-19T11:32:04;11.00;99.90
72646;DHT22;60687;53.876;10.674;2023-11-19T11:42:33;11.00;99.90
72646;DHT22;60687;53.876;10.674;2023-11-19T12:03:21;11.10;99.90
72646;DHT22;60687;53.876;10.674;2023-11-19T12:13:46;11.10;99.90
72646;DHT22;60687;53.876;10.674;2023-11-19T12:23:51;11.10;99.90
72646;DHT22;60687;53.876;10.674;2023-11-19T12:33:54;11.10;99.90
72646;DHT22;60687;53.876;10.674;2023-11-19T12:44:10;11.20;99.90
72646;DHT22;60687;53.876;10.674;2023-11-19T12:54:13;11.30;99.90
72646;DHT22;60687;53.876;10.674;2023-11-19T13:04:19;11.30;99.90
72646;DHT22;60687;53.876;10.674;2023-11-19T13:14:22;11.30;99.90
72646;DHT22;60687;53.876;10.674;2023-11-19T13:24:26;11.30;99.90
72646;DHT22;60687;53.876;10.674;2023-11-19T13:34:28;11.30;99.90
72646;DHT22;60687;53.876;10.674;2023-11-19T13:44:32;11.40;99.90
72646;DHT22;60687;53.876;10.674;2023-11-19T13:54:36;11.40;99.90
72646;DHT22;60687;53.876;10.674;2023-11-19T14:04:40;11.50;99.90
72646;DHT22;60687;53.876;10.674;2023-11-19T14:14:42;11.40;99.90
72646;DHT22;60687;53.876;10.674;2023-11-19T14:24:46;11.40;99.90
72646;DHT22;60687;53.876;10.674;2023-11-19T14:34:49;11.40;99.90
72646;DHT22;60687;53.876;10.674;2023-11-19T14:44:53;11.40;99.90
72646;DHT22;60687;53.876;10.674;2023-11-19T14:54:56;11.30;99.90
72646;DHT22;60687;53.876;10.674;2023-11-19T15:05:00;11.30;99.90
72646;DHT22;60687;53.876;10.674;2023-11-19T15:15:03;11.20;99.90
72646;DHT22;60687;53.876;10.674;2023-11-19T15:25:08;11.10;99.90
72646;DHT22;60687;53.876;10.674;2023-11-19T15:35:12;11.10;99.90
72646;DHT22;60687;53.876;10.674;2023-11-19T15:45:16;11.10;99.90
72646;DHT22;60687;53.876;10.674;2023-11-19T15:55:19;11.00;99.90
72646;DHT22;60687;53.876;10.674;2023-11-19T16:05:23;11.00;99.90
72646;DHT22;60687;53.876;10.674;2023-11-19T16:15:27;10.90;99.90
72646;DHT22;60687;53.876;10.674;2023-11-19T16:25:31;10.90;99.90
72646;DHT22;60687;53.876;10.674;2023-11-19T16:35:34;10.90;99.90
72646;DHT22;60687;53.876;10.674;2023-11-19T16:45:39;10.90;99.90
72646;DHT22;60687;53.876;10.674;2023-11-19T16:55:41;10.80;99.90
72646;DHT22;60687;53.876;10.674;2023-11-19T17:05:45;10.70;99.90
72646;DHT22;60687;53.876;10.674;2023-11-19T17:15:48;10.60;99.90
72646;DHT22;60687;53.876;10.674;2023-11-19T17:25:53;10.60;99.90
72646;DHT22;60687;53.876;10.674;2023-11-19T17:35:55;10.50;99.90
72646;DHT22;60687;53.876;10.674;2023-11-19T17:45:59;10.40;99.90
72646;DHT22;60687;53.876;10.674;2023-11-19T17:56:04;10.40;99.90
72646;DHT22;60687;53.876;10.674;2023-11-19T18:06:14;10.30;99.90
72646;DHT22;60687;53.876;10.674;2023-11-19T18:16:18;10.20;99.90
72646;DHT22;60687;53.876;10.674;2023-11-19T18:26:22;10.20;99.90
72646;DHT22;60687;53.876;10.674;2023-11-19T18:36:25;10.10;99.90
72646;DHT22;60687;53.876;10.674;2023-11-19T18:46:31;10.10;99.90
72646;DHT22;60687;53.876;10.674;2023-11-19T18:56:33;10.10;99.90
72646;DHT22;60687;53.876;10.674;2023-11-19T19:06:37;10.10;99.90
72646;DHT22;60687;53.876;10.674;2023-11-19T19:16:41;10.20;99.90
72646;DHT22;60687;53.876;10.674;2023-11-19T19:26:46;10.10;99.90
72646;DHT22;60687;53.876;10.674;2023-11-19T19:36:49;10.10;99.90
72646;DHT22;60687;53.876;10.674;2023-11-19T19:46:53;10.10;99.90
72646;DHT22;60687;53.876;10.674;2023-11-19T19:56:55;10.00;99.90
72646;DHT22;60687;53.876;10.674;2023-11-19T20:06:59;10.00;99.90
72646;DHT22;60687;53.876;10.674;2023-11-19T20:17:02;9.90;99.90
72646;DHT22;60687;53.876;10.674;2023-11-19T20:27:07;9.90;99.90
72646;DHT22;60687;53.876;10.674;2023-11-19T20:37:16;9.80;99.90
72646;DHT22;60687;53.876;10.674;2023-11-19T20:47:21;9.80;99.90
72646;DHT22;60687;53.876;10.674;2023-11-19T20:57:23;9.80;99.90
72646;DHT22;60687;53.876;10.674;2023-11-19T21:07:27;9.80;99.90
72646;DHT22;60687;53.876;10.674;2023-11-19T21:17:30;9.80;99.90
72646;DHT22;60687;53.876;10.674;2023-11-19T21:27:33;9.80;99.90
72646;DHT22;60687;53.876;10.674;2023-11-19T21:37:36;9.80;99.90
72646;DHT22;60687;53.876;10.674;2023-11-19T21:47:39;9.80;99.90
72646;DHT22;60687;53.876;10.674;2023-11-19T21:57:42;9.80;99.90
72646;DHT22;60687;53.876;10.674;2023-11-19T22:07:46;9.90;99.90
72646;DHT22;60687;53.876;10.674;2023-11-19T22:17:48;9.90;99.90
72646;DHT22;60687;53.876;10.674;2023-11-19T22:27:55;10.00;99.90
72646;DHT22;60687;53.876;10.674;2023-11-19T22:37:58;10.00;99.90
72646;DHT22;60687;53.876;10.674;2023-11-19T22:48:01;10.00;99.90
72646;DHT22;60687;53.876;10.674;2023-11-19T22:58:04;10.10;99.90
72646;DHT22;60687;53.876;10.674;2023-11-19T23:08:08;10.10;99.90
72646;DHT22;60687;53.876;10.674;2023-11-19T23:18:11;10.10;99.90
72646;DHT22;60687;53.876;10.674;2023-11-19T23:28:16;10.10;99.90
72646;DHT22;60687;53.876;10.674;2023-11-19T23:38:19;10.10;99.90
72646;DHT22;60687;53.876;10.674;2023-11-19T23:48:23;10.10;99.90
72646;DHT22;60687;53.876;10.674;2023-11-19T23:58:26;10.10;99.90
